Time;durP1;ratioP1;P1;durP2;ratioP2;P2;SDS_P1;SDS_P2;PMS_P1;PMS_P2;Temp;Humidity;BMP_temperature;BMP_pressure;BME280_temperature;BME280_humidity;BME280_pressure;Samples;Min_cycle;Max_cycle;Signal;HPM_P1;HPM_P2
2022/04/18 00:02:24;;;;;;;;;;;6.70;65.00;;;;;;5059622;28;19913;-71
2022/04/18 00:04:51;;;;;;;;;;;6.70;65.20;;;;;;5056498;28;19905;-71
2022/04/18 00:07:17;;;;;;;;;;;6.70;65.00;;;;;;5059161;28;19904;-71
2022/04/18 00:09:42;;;;;;;;;;;6.70;64.80;;;;;;5053783;28;19958;-71
2022/04/18 00:12:08;;;;;;;;;;;6.60;64.60;;;;;;5059822;28;19919;-71
2022/04/18 00:14:34;;;;;;;;;;;6.60;64.80;;;;;;5056220;28;20241;-71
2022/04/18 00:17:02;;;;;;;;;;;6.60;64.90;;;;;;5060325;28;19987;-73
2022/04/18 00:19:27;;;;;;;;;;;6.60;64.90;;;;;;5054896;28;19916;-71
2022/04/18 00:21:53;;;;;;;;;;;6.50;64.90;;;;;;5058141;28;19962;-74
2022/04/18 00:24:20;;;;;;;;;;;6.60;65.20;;;;;;5059372;28;19999;-72
2022/04/18 00:26:47;;;;;;;;;;;6.50;65.40;;;;;;5053600;28;20348;-71
2022/04/18 00:29:13;;;;;;;;;;;6.50;65.40;;;;;;5060095;28;19950;-73
2022/04/18 00:31:39;;;;;;;;;;;6.50;65.50;;;;;;5054958;28;19908;-73
2022/04/18 00:34:05;;;;;;;;;;;6.50;65.80;;;;;;5059521;28;20381;-72
2022/04/18 00:36:31;;;;;;;;;;;6.50;65.80;;;;;;5052663;28;19938;-73
2022/04/18 00:38:58;;;;;;;;;;;6.50;66.00;;;;;;5057480;28;19963;-83
2022/04/18 00:41:25;;;;;;;;;;;6.50;66.30;;;;;;5055881;28;19912;-79
2022/04/18 00:43:50;;;;;;;;;;;6.40;66.20;;;;;;5054844;28;20423;-73
2022/04/18 00:46:17;;;;;;;;;;;6.50;66.50;;;;;;5057925;28;19908;-75
2022/04/18 00:48:47;;;;;;;;;;;6.40;66.90;;;;;;5055242;28;19905;-71
2022/04/18 00:51:20;;;;;;;;;;;6.40;67.10;;;;;;5058549;28;19908;-74
2022/04/18 00:53:48;;;;;;;;;;;6.40;67.20;;;;;;5053054;28;19939;-76
2022/04/18 00:56:15;;;;;;;;;;;6.40;67.20;;;;;;5058551;28;19904;-71
2022/04/18 00:58:42;;;;;;;;;;;6.40;67.20;;;;;;5054491;28;20357;-72
2022/04/18 01:01:08;;;;;;;;;;;6.30;67.40;;;;;;5056455;28;19908;-74
2022/04/18 01:03:36;;;;;;;;;;;6.30;67.90;;;;;;5055303;28;19973;-72
2022/04/18 01:06:03;;;;;;;;;;;6.30;68.20;;;;;;5057889;28;19908;-75
2022/04/18 01:08:29;;;;;;;;;;;6.30;68.30;;;;;;5055214;28;20279;-71
2022/04/18 01:10:54;;;;;;;;;;;6.30;68.60;;;;;;5057217;28;19916;-73
2022/04/18 01:13:21;;;;;;;;;;;6.20;68.90;;;;;;5058109;28;19904;-71
2022/04/18 01:15:51;;;;;;;;;;;6.20;68.90;;;;;;5053122;28;19930;-72
2022/04/18 01:18:17;;;;;;;;;;;6.20;68.70;;;;;;5059039;28;19905;-72
2022/04/18 01:20:43;;;;;;;;;;;6.20;68.70;;;;;;5053288;28;19912;-71
2022/04/18 01:23:09;;;;;;;;;;;6.20;68.90;;;;;;5057099;28;19904;-74
2022/04/18 01:31:05;;;;;;;;;;;6.20;69.20;;;;;;5057609;28;19954;-71
2022/04/18 01:33:32;;;;;;;;;;;6.10;69.30;;;;;;5054732;28;20117;-71
2022/04/18 01:35:57;;;;;;;;;;;6.10;69.20;;;;;;5057950;28;19999;-72
2022/04/18 01:38:23;;;;;;;;;;;6.10;70.10;;;;;;5056990;28;20563;-71
2022/04/18 01:40:49;;;;;;;;;;;6.10;70.10;;;;;;5053366;28;19967;-72
2022/04/18 01:43:15;;;;;;;;;;;6.10;70.70;;;;;;5057003;28;20365;-76
2022/04/18 01:45:40;;;;;;;;;;;6.00;70.70;;;;;;5052915;28;19957;-73
2022/04/18 01:48:06;;;;;;;;;;;6.00;70.80;;;;;;5058064;28;19995;-72
2022/04/18 01:50:31;;;;;;;;;;;6.00;70.40;;;;;;5053761;28;20008;-74
2022/04/18 01:52:58;;;;;;;;;;;6.00;70.30;;;;;;5055727;28;19908;-71
2022/04/18 01:55:24;;;;;;;;;;;6.00;70.30;;;;;;5057324;28;20002;-71
2022/04/18 01:57:51;;;;;;;;;;;6.00;70.50;;;;;;5053174;28;19931;-74
2022/04/18 02:00:17;;;;;;;;;;;5.90;70.30;;;;;;5057428;28;19915;-78
2022/04/18 02:02:42;;;;;;;;;;;5.90;70.60;;;;;;5053842;28;19908;-72
2022/04/18 02:05:12;;;;;;;;;;;6.00;71.10;;;;;;5057331;28;20469;-72
2022/04/18 02:07:38;;;;;;;;;;;5.90;71.50;;;;;;5053276;28;19904;-72
2022/04/18 02:10:04;;;;;;;;;;;5.90;71.80;;;;;;5057505;28;20380;-71
2022/04/18 02:12:31;;;;;;;;;;;5.90;72.20;;;;;;5052311;28;20336;-71
2022/04/18 02:14:58;;;;;;;;;;;5.90;72.20;;;;;;5057457;28;19908;-73
2022/04/18 02:17:25;;;;;;;;;;;5.90;72.20;;;;;;5057889;28;19966;-72
2022/04/18 02:19:52;;;;;;;;;;;5.90;72.00;;;;;;5052575;28;20003;-72
2022/04/18 02:22:23;;;;;;;;;;;5.90;72.20;;;;;;5055472;28;19916;-71
2022/04/18 02:24:49;;;;;;;;;;;5.80;72.90;;;;;;5052201;28;19961;-73
2022/04/18 02:27:16;;;;;;;;;;;5.80;74.00;;;;;;5056252;28;19904;-73
2022/04/18 02:29:43;;;;;;;;;;;5.80;74.30;;;;;;5051925;28;19999;-71
2022/04/18 02:34:55;;;;;;;;;;;5.70;74.00;;;;;;5055503;28;20376;-73
2022/04/18 02:37:21;;;;;;;;;;;5.60;74.40;;;;;;5056667;28;19909;-74
2022/04/18 02:39:48;;;;;;;;;;;5.60;74.90;;;;;;5051283;28;20422;-71
2022/04/18 02:42:13;;;;;;;;;;;5.50;74.60;;;;;;5056271;28;20363;-72
2022/04/18 02:44:42;;;;;;;;;;;5.50;75.10;;;;;;5051660;28;19904;-72
2022/04/18 02:47:07;;;;;;;;;;;5.50;75.50;;;;;;5055992;28;19904;-72
2022/04/18 02:49:33;;;;;;;;;;;5.40;75.70;;;;;;5053178;28;19905;-72
2022/04/18 02:51:58;;;;;;;;;;;5.40;76.10;;;;;;5053354;28;19905;-72
2022/04/18 02:54:24;;;;;;;;;;;5.40;76.00;;;;;;5056249;28;21474;-74
2022/04/18 02:56:52;;;;;;;;;;;5.40;75.80;;;;;;5052175;28;19904;-76
2022/04/18 02:59:17;;;;;;;;;;;5.40;76.10;;;;;;5053492;28;19904;-72
2022/04/18 03:01:43;;;;;;;;;;;5.40;76.50;;;;;;5049526;28;19908;-72
2022/04/18 03:04:09;;;;;;;;;;;5.40;76.50;;;;;;5058783;28;19950;-71
2022/04/18 03:06:36;;;;;;;;;;;5.30;76.30;;;;;;5056111;28;19909;-71
2022/04/18 03:09:02;;;;;;;;;;;5.30;76.00;;;;;;5057768;28;19961;-73
2022/04/18 03:11:35;;;;;;;;;;;5.30;76.40;;;;;;5060343;28;20383;-71
2022/04/18 03:14:01;;;;;;;;;;;5.40;76.90;;;;;;5058296;28;19908;-77
2022/04/18 03:16:27;;;;;;;;;;;5.40;77.20;;;;;;5058613;28;19958;-79
2022/04/18 03:18:52;;;;;;;;;;;5.40;77.60;;;;;;5054275;28;19959;-81
2022/04/18 03:21:18;;;;;;;;;;;5.40;78.10;;;;;;5057795;28;20010;-78
2022/04/18 03:23:46;;;;;;;;;;;5.40;78.20;;;;;;5056285;28;19904;-72
2022/04/18 03:26:11;;;;;;;;;;;5.40;78.10;;;;;;5061491;28;19943;-76
2022/04/18 03:28:38;;;;;;;;;;;5.40;77.20;;;;;;5057072;28;19943;-79
2022/04/18 03:31:03;;;;;;;;;;;5.40;76.60;;;;;;5060230;28;20016;-71
2022/04/18 03:33:30;;;;;;;;;;;5.40;76.50;;;;;;5060087;28;20000;-72
2022/04/18 03:41:26;;;;;;;;;;;5.40;76.30;;;;;;5058824;28;19966;-72
2022/04/18 03:43:52;;;;;;;;;;;5.40;76.30;;;;;;5057076;28;19912;-78
2022/04/18 03:46:18;;;;;;;;;;;5.40;76.40;;;;;;5060603;28;19927;-76
2022/04/18 03:48:43;;;;;;;;;;;5.40;76.70;;;;;;5054573;28;20353;-72
2022/04/18 03:51:10;;;;;;;;;;;5.30;77.50;;;;;;5059139;28;19908;-72
2022/04/18 03:53:37;;;;;;;;;;;5.30;77.70;;;;;;5057077;28;19905;-72
2022/04/18 03:56:03;;;;;;;;;;;5.30;77.50;;;;;;5055413;28;19913;-72
2022/04/18 03:58:29;;;;;;;;;;;5.30;77.60;;;;;;5056615;28;19908;-74
2022/04/18 04:00:56;;;;;;;;;;;5.20;77.50;;;;;;5060066;28;19912;-78
2022/04/18 04:03:22;;;;;;;;;;;5.30;77.40;;;;;;5056762;28;19904;-80
2022/04/18 04:05:48;;;;;;;;;;;5.30;77.30;;;;;;5056528;28;19953;-73
2022/04/18 04:08:13;;;;;;;;;;;5.20;77.20;;;;;;5055434;28;19908;-76
2022/04/18 04:10:39;;;;;;;;;;;5.30;77.40;;;;;;5057437;28;19919;-71
2022/04/18 04:13:06;;;;;;;;;;;5.30;77.50;;;;;;5057098;28;19908;-72
2022/04/18 04:15:32;;;;;;;;;;;5.30;77.30;;;;;;5059297;28;20513;-72
2022/04/18 04:17:58;;;;;;;;;;;5.30;77.40;;;;;;5059647;28;19915;-71
2022/04/18 04:20:24;;;;;;;;;;;5.30;77.20;;;;;;5054248;28;20266;-73
2022/04/18 04:22:51;;;;;;;;;;;5.40;76.80;;;;;;5058320;28;19908;-74
2022/04/18 04:25:17;;;;;;;;;;;5.50;76.60;;;;;;5053374;28;19998;-73
2022/04/18 04:27:44;;;;;;;;;;;5.50;76.40;;;;;;5058877;28;19977;-73
2022/04/18 04:30:11;;;;;;;;;;;5.60;76.10;;;;;;5054854;28;19908;-74
2022/04/18 04:32:36;;;;;;;;;;;5.80;75.70;;;;;;5059003;28;19908;-74
2022/04/18 04:35:03;;;;;;;;;;;5.90;75.20;;;;;;5060566;28;20242;-72
2022/04/18 04:37:29;;;;;;;;;;;6.10;74.90;;;;;;5055415;28;19915;-73
2022/04/18 04:39:55;;;;;;;;;;;6.20;74.00;;;;;;5058592;28;21514;-73
2022/04/18 04:42:22;;;;;;;;;;;6.50;73.30;;;;;;5059252;28;19909;-72
2022/04/18 04:44:48;;;;;;;;;;;6.90;72.00;;;;;;5056589;28;19909;-72
2022/04/18 04:47:15;;;;;;;;;;;7.00;71.30;;;;;;5058203;28;19936;-72
2022/04/18 04:49:41;;;;;;;;;;;7.10;70.70;;;;;;5053287;28;19908;-72
2022/04/18 04:52:06;;;;;;;;;;;7.20;70.50;;;;;;5053189;28;19909;-72
2022/04/18 04:54:34;;;;;;;;;;;7.20;69.80;;;;;;5058892;28;19905;-72
2022/04/18 04:57:01;;;;;;;;;;;7.30;69.60;;;;;;5053726;28;19970;-73
2022/04/18 04:59:26;;;;;;;;;;;7.30;69.70;;;;;;5057955;28;19912;-72
2022/04/18 05:01:52;;;;;;;;;;;7.30;69.70;;;;;;5056999;28;20208;-72
2022/04/18 05:04:18;;;;;;;;;;;7.30;69.50;;;;;;5052627;28;19904;-73
2022/04/18 05:06:44;;;;;;;;;;;7.20;69.40;;;;;;5058502;28;19924;-72
2022/04/18 05:09:10;;;;;;;;;;;7.20;69.50;;;;;;5052894;28;19971;-72
2022/04/18 05:11:37;;;;;;;;;;;7.30;69.90;;;;;;5058735;28;19916;-72
2022/04/18 05:14:03;;;;;;;;;;;7.30;69.70;;;;;;5049876;28;19908;-72
2022/04/18 05:16:28;;;;;;;;;;;7.30;70.00;;;;;;5053699;28;19965;-72
2022/04/18 05:18:54;;;;;;;;;;;7.30;69.80;;;;;;5054459;28;21410;-72
2022/04/18 05:21:20;;;;;;;;;;;7.30;69.60;;;;;;5053146;28;19934;-72
2022/04/18 05:23:45;;;;;;;;;;;7.30;69.90;;;;;;5055629;28;19947;-72
2022/04/18 05:26:11;;;;;;;;;;;7.30;69.60;;;;;;5052112;28;19911;-73
2022/04/18 05:28:36;;;;;;;;;;;7.20;69.80;;;;;;5058631;28;19904;-72
2022/04/18 05:31:02;;;;;;;;;;;7.20;69.70;;;;;;5054904;28;19956;-72
2022/04/18 05:33:29;;;;;;;;;;;7.20;70.30;;;;;;5091383;28;20154;-73
2022/04/18 05:35:54;;;;;;;;;;;7.20;70.20;;;;;;5054343;28;19913;-72
2022/04/18 05:38:20;;;;;;;;;;;7.20;70.30;;;;;;5057531;28;20349;-72
2022/04/18 05:40:46;;;;;;;;;;;7.20;70.30;;;;;;5051663;28;19959;-73
2022/04/18 05:43:11;;;;;;;;;;;7.20;70.30;;;;;;5054636;28;19915;-75
2022/04/18 05:45:37;;;;;;;;;;;7.20;70.60;;;;;;5053607;28;19915;-73
2022/04/18 05:48:03;;;;;;;;;;;7.20;70.40;;;;;;5057633;28;19905;-73
2022/04/18 05:50:29;;;;;;;;;;;7.20;70.10;;;;;;5052577;28;19917;-73
2022/04/18 05:52:54;;;;;;;;;;;7.20;70.20;;;;;;5054648;28;20506;-73
2022/04/18 05:55:23;;;;;;;;;;;7.20;70.40;;;;;;5055576;28;19957;-82
2022/04/18 05:57:49;;;;;;;;;;;7.20;70.50;;;;;;5053202;28;20398;-81
2022/04/18 06:00:15;;;;;;;;;;;7.20;70.60;;;;;;5055726;28;19908;-74
2022/04/18 06:02:41;;;;;;;;;;;7.20;70.80;;;;;;5055895;28;19905;-73
2022/04/18 06:05:07;;;;;;;;;;;7.30;70.90;;;;;;5053222;28;19986;-71
2022/04/18 06:07:45;;;;;;;;;;;7.30;70.60;;;;;;5057635;28;19904;-72
2022/04/18 06:10:10;;;;;;;;;;;7.40;70.50;;;;;;5049736;28;19916;-72
2022/04/18 06:12:36;;;;;;;;;;;7.50;70.10;;;;;;5057529;28;19908;-71
2022/04/18 06:15:01;;;;;;;;;;;7.60;70.10;;;;;;5054399;28;19915;-72
2022/04/18 06:17:36;;;;;;;;;;;7.60;69.50;;;;;;5057323;28;19905;-72
2022/04/18 06:20:05;;;;;;;;;;;7.70;69.60;;;;;;5064986;28;19920;-72
2022/04/18 06:22:32;;;;;;;;;;;7.80;69.50;;;;;;5057565;28;19908;-72
2022/04/18 06:24:57;;;;;;;;;;;7.90;69.40;;;;;;5052940;28;19908;-72
2022/04/18 06:27:23;;;;;;;;;;;7.90;69.20;;;;;;5055660;28;20375;-72
2022/04/18 06:29:54;;;;;;;;;;;8.00;69.10;;;;;;5056340;28;19959;-71
2022/04/18 06:32:24;;;;;;;;;;;8.10;68.60;;;;;;5053884;28;19908;-72
2022/04/18 06:34:50;;;;;;;;;;;8.20;68.60;;;;;;5057356;28;19908;-72
2022/04/18 06:37:15;;;;;;;;;;;8.30;68.70;;;;;;5055877;28;20559;-72
2022/04/18 06:39:43;;;;;;;;;;;8.30;68.20;;;;;;5058763;28;19989;-72
2022/04/18 06:42:09;;;;;;;;;;;8.40;68.20;;;;;;5056692;28;19908;-72
2022/04/18 06:44:35;;;;;;;;;;;8.30;68.10;;;;;;5062048;28;19904;-72
2022/04/18 06:47:01;;;;;;;;;;;8.30;68.00;;;;;;5057464;28;19926;-72
2022/04/18 06:49:26;;;;;;;;;;;8.30;68.10;;;;;;5060169;28;19999;-72
2022/04/18 06:51:53;;;;;;;;;;;8.30;67.90;;;;;;5058586;28;19952;-72
2022/04/18 06:54:21;;;;;;;;;;;8.30;67.40;;;;;;5056181;28;19958;-72
2022/04/18 06:57:00;;;;;;;;;;;8.30;67.50;;;;;;5061672;28;19983;-72
2022/04/18 06:59:27;;;;;;;;;;;8.30;67.80;;;;;;5060061;28;19913;-72
2022/04/18 07:01:59;;;;;;;;;;;8.30;68.00;;;;;;5059117;28;19912;-73
2022/04/18 07:04:25;;;;;;;;;;;8.30;68.40;;;;;;5058651;28;19919;-73
2022/04/18 07:06:50;;;;;;;;;;;8.30;68.00;;;;;;5056962;28;19904;-72
2022/04/18 07:09:18;;;;;;;;;;;8.20;68.10;;;;;;5053906;28;19916;-74
2022/04/18 07:11:45;;;;;;;;;;;8.30;68.80;;;;;;5054219;28;20011;-72
2022/04/18 07:14:14;;;;;;;;;;;8.40;68.30;;;;;;5055174;28;19962;-72
2022/04/18 07:16:40;;;;;;;;;;;8.30;67.80;;;;;;5060658;28;19909;-72
2022/04/18 07:19:06;;;;;;;;;;;8.30;68.00;;;;;;5055774;28;19912;-72
2022/04/18 07:21:33;;;;;;;;;;;8.40;68.00;;;;;;5059840;28;20258;-72
2022/04/18 07:23:58;;;;;;;;;;;8.40;67.90;;;;;;5054857;28;20312;-72
2022/04/18 07:26:24;;;;;;;;;;;8.40;67.50;;;;;;5058036;28;19994;-72
2022/04/18 07:28:50;;;;;;;;;;;8.40;67.60;;;;;;5058656;28;19936;-70
2022/04/18 07:31:15;;;;;;;;;;;8.40;67.70;;;;;;5055425;28;19908;-70
2022/04/18 07:33:43;;;;;;;;;;;8.50;67.70;;;;;;5058650;28;19904;-71
2022/04/18 07:36:09;;;;;;;;;;;8.50;67.30;;;;;;5055964;28;19909;-71
2022/04/18 07:38:51;;;;;;;;;;;8.60;67.50;;;;;;5059338;28;19947;-70
2022/04/18 07:41:17;;;;;;;;;;;8.60;67.30;;;;;;5053094;28;20467;-71
2022/04/18 07:43:44;;;;;;;;;;;8.60;67.30;;;;;;5057387;28;19908;-71
2022/04/18 07:46:10;;;;;;;;;;;8.70;67.50;;;;;;5054179;28;20570;-72
2022/04/18 07:48:37;;;;;;;;;;;8.60;67.00;;;;;;5057998;28;19908;-72
2022/04/18 07:53:49;;;;;;;;;;;8.60;67.60;;;;;;5057661;28;19911;-72
2022/04/18 07:56:14;;;;;;;;;;;8.60;67.70;;;;;;5055688;28;19908;-72
2022/04/18 07:58:40;;;;;;;;;;;8.60;67.80;;;;;;5058632;28;19953;-72
2022/04/18 08:01:05;;;;;;;;;;;8.50;67.90;;;;;;5057436;28;20007;-71
2022/04/18 08:03:35;;;;;;;;;;;8.40;67.80;;;;;;5059741;28;20075;-72
2022/04/18 08:06:01;;;;;;;;;;;8.40;69.30;;;;;;5054811;28;19908;-72
2022/04/18 08:08:27;;;;;;;;;;;8.30;71.60;;;;;;5059676;28;19913;-72
2022/04/18 08:10:53;;;;;;;;;;;8.30;73.00;;;;;;5057727;28;19993;-72
2022/04/18 08:13:19;;;;;;;;;;;8.30;73.10;;;;;;5054414;28;20264;-72
2022/04/18 08:15:44;;;;;;;;;;;8.30;74.40;;;;;;5058969;28;19905;-72
2022/04/18 08:18:10;;;;;;;;;;;8.30;75.10;;;;;;5053352;28;19969;-71
2022/04/18 08:20:36;;;;;;;;;;;8.30;75.20;;;;;;5058580;28;19916;-71
2022/04/18 08:23:02;;;;;;;;;;;8.30;74.80;;;;;;5054275;28;19944;-71
2022/04/18 08:25:28;;;;;;;;;;;8.20;76.80;;;;;;5057820;28;20312;-72
2022/04/18 08:27:53;;;;;;;;;;;8.20;77.70;;;;;;5057795;28;19948;-71
2022/04/18 08:30:19;;;;;;;;;;;8.20;77.70;;;;;;5051172;28;20001;-72
2022/04/18 08:32:45;;;;;;;;;;;8.20;79.10;;;;;;5057307;28;19912;-71
2022/04/18 08:35:11;;;;;;;;;;;8.20;78.50;;;;;;5054617;28;19986;-72
2022/04/18 08:37:44;;;;;;;;;;;8.20;76.90;;;;;;5060126;28;19995;-71
2022/04/18 08:40:10;;;;;;;;;;;8.10;75.70;;;;;;5053468;28;20456;-72
2022/04/18 08:42:40;;;;;;;;;;;8.10;74.50;;;;;;5058069;28;19935;-72
2022/04/18 08:45:07;;;;;;;;;;;8.10;74.70;;;;;;5050163;28;19947;-71
2022/04/18 08:53:03;;;;;;;;;;;8.00;76.40;;;;;;5052369;28;19919;-72
2022/04/18 08:55:29;;;;;;;;;;;8.10;77.20;;;;;;5058585;28;19908;-71
2022/04/18 08:57:55;;;;;;;;;;;8.10;77.80;;;;;;5058047;28;19912;-72
2022/04/18 09:00:21;;;;;;;;;;;8.20;77.70;;;;;;5052752;28;19919;-71
2022/04/18 09:02:47;;;;;;;;;;;8.20;78.20;;;;;;5057841;28;19904;-71
2022/04/18 09:05:13;;;;;;;;;;;8.20;78.40;;;;;;5053550;28;19912;-71
2022/04/18 09:07:42;;;;;;;;;;;8.10;78.80;;;;;;5057178;28;19931;-70
2022/04/18 09:10:08;;;;;;;;;;;8.10;76.80;;;;;;5051253;28;20257;-71
2022/04/18 09:12:34;;;;;;;;;;;8.10;78.60;;;;;;5058713;28;19908;-71
2022/04/18 09:14:59;;;;;;;;;;;8.10;79.00;;;;;;5053246;28;19951;-71
2022/04/18 09:17:32;;;;;;;;;;;8.00;79.10;;;;;;5057107;28;20043;-72
2022/04/18 09:20:08;;;;;;;;;;;8.00;80.20;;;;;;5052961;28;19912;-71
2022/04/18 09:22:43;;;;;;;;;;;7.90;82.00;;;;;;5057071;28;19940;-71
2022/04/18 09:25:12;;;;;;;;;;;7.90;82.80;;;;;;5053875;28;19912;-71
2022/04/18 09:27:38;;;;;;;;;;;7.90;83.20;;;;;;5057676;28;19931;-71
2022/04/18 09:30:10;;;;;;;;;;;8.00;84.70;;;;;;5053203;28;19935;-72
2022/04/18 09:32:38;;;;;;;;;;;8.00;86.70;;;;;;5054482;28;20369;-71
2022/04/18 09:35:05;;;;;;;;;;;8.00;88.10;;;;;;5053937;28;20307;-71
2022/04/18 09:37:31;;;;;;;;;;;8.10;89.50;;;;;;5056842;28;19904;-71
2022/04/18 09:39:58;;;;;;;;;;;8.10;90.40;;;;;;5054678;28;20357;-71
2022/04/18 09:42:25;;;;;;;;;;;8.10;91.60;;;;;;5056256;28;20012;-71
2022/04/18 09:44:51;;;;;;;;;;;8.20;91.30;;;;;;5057517;28;19909;-71
2022/04/18 09:47:19;;;;;;;;;;;8.20;91.90;;;;;;5053384;28;19909;-71
2022/04/18 09:49:45;;;;;;;;;;;8.30;92.70;;;;;;5054795;28;20005;-71
2022/04/18 09:52:12;;;;;;;;;;;8.40;92.70;;;;;;5052114;28;19962;-71
2022/04/18 09:54:43;;;;;;;;;;;8.50;92.60;;;;;;5055326;28;20375;-71
2022/04/18 09:57:09;;;;;;;;;;;8.60;92.60;;;;;;5053688;28;19947;-71
2022/04/18 09:59:36;;;;;;;;;;;8.70;91.90;;;;;;5056756;28;19901;-71
2022/04/18 10:02:02;;;;;;;;;;;8.80;91.70;;;;;;5053834;28;20401;-72
2022/04/18 10:04:28;;;;;;;;;;;8.90;91.30;;;;;;5057000;28;19979;-71
2022/04/18 10:06:55;;;;;;;;;;;9.00;91.10;;;;;;5055463;28;20681;-71
2022/04/18 10:09:23;;;;;;;;;;;9.30;91.00;;;;;;5053592;28;19911;-71
2022/04/18 10:11:49;;;;;;;;;;;9.60;89.40;;;;;;5056163;28;19915;-71
2022/04/18 10:14:15;;;;;;;;;;;9.70;88.60;;;;;;5053666;28;19908;-72
2022/04/18 10:16:41;;;;;;;;;;;9.70;87.20;;;;;;5057633;28;19904;-71
2022/04/18 10:19:19;;;;;;;;;;;9.80;85.70;;;;;;5053116;28;19916;-72
2022/04/18 10:21:48;;;;;;;;;;;10.00;83.50;;;;;;5054946;28;19924;-71
2022/04/18 10:24:15;;;;;;;;;;;10.10;82.50;;;;;;5053211;28;19908;-71
2022/04/18 10:27:00;;;;;;;;;;;10.20;81.90;;;;;;5056947;28;20029;-71
2022/04/18 10:29:28;;;;;;;;;;;10.30;80.70;;;;;;5056979;28;19912;-71
2022/04/18 10:31:57;;;;;;;;;;;10.20;81.50;;;;;;5056944;28;19923;-71
2022/04/18 10:34:24;;;;;;;;;;;10.20;82.00;;;;;;5055214;28;20777;-71
2022/04/18 10:36:54;;;;;;;;;;;10.20;80.80;;;;;;5056819;28;19908;-71
2022/04/18 10:39:20;;;;;;;;;;;10.30;80.10;;;;;;5052831;28;19920;-72
2022/04/18 10:41:47;;;;;;;;;;;10.40;80.00;;;;;;5056155;28;19995;-71
2022/04/18 10:44:19;;;;;;;;;;;10.50;79.50;;;;;;5054312;28;19908;-73
2022/04/18 10:46:49;;;;;;;;;;;10.70;81.90;;;;;;5056017;28;20311;-70
2022/04/18 10:49:19;;;;;;;;;;;10.90;79.00;;;;;;5051219;28;19911;-71
2022/04/18 10:51:45;;;;;;;;;;;11.00;78.10;;;;;;5053815;28;20292;-71
2022/04/18 10:54:11;;;;;;;;;;;11.00;77.90;;;;;;5052138;28;19996;-71
2022/04/18 10:56:49;;;;;;;;;;;11.00;77.70;;;;;;5055616;28;20341;-71
2022/04/18 10:59:15;;;;;;;;;;;11.00;77.00;;;;;;5050134;28;19905;-70
2022/04/18 11:01:45;;;;;;;;;;;10.90;76.70;;;;;;5055223;28;19915;-70
2022/04/18 11:04:11;;;;;;;;;;;10.90;77.50;;;;;;5052414;28;20382;-71
2022/04/18 11:06:37;;;;;;;;;;;10.80;77.40;;;;;;5054517;28;19908;-72
2022/04/18 11:09:06;;;;;;;;;;;11.10;79.30;;;;;;5049094;28;19909;-72
2022/04/18 11:11:41;;;;;;;;;;;11.40;77.70;;;;;;5052127;28;19912;-71
2022/04/18 11:14:16;;;;;;;;;;;11.70;76.60;;;;;;5052202;28;19911;-71
2022/04/18 11:16:41;;;;;;;;;;;12.00;75.90;;;;;;5052964;28;19946;-70
2022/04/18 11:19:13;;;;;;;;;;;12.10;74.70;;;;;;5050289;28;19959;-71
2022/04/18 11:22:01;;;;;;;;;;;12.00;74.70;;;;;;5054807;28;19913;-71
2022/04/18 11:24:34;;;;;;;;;;;12.00;74.60;;;;;;5058375;28;20668;-71
2022/04/18 11:27:00;;;;;;;;;;;11.90;74.70;;;;;;5056461;28;19908;-71
2022/04/18 11:29:26;;;;;;;;;;;11.90;74.40;;;;;;5059150;28;19966;-71
2022/04/18 11:31:53;;;;;;;;;;;11.80;75.30;;;;;;5056790;28;19913;-70
2022/04/18 11:34:19;;;;;;;;;;;11.80;74.50;;;;;;5055070;28;20163;-70
2022/04/18 11:36:45;;;;;;;;;;;11.70;73.70;;;;;;5058544;28;19908;-71
2022/04/18 11:39:11;;;;;;;;;;;11.60;74.60;;;;;;5053401;28;19908;-71
2022/04/18 11:41:36;;;;;;;;;;;11.80;74.40;;;;;;5058559;28;20014;-71
2022/04/18 11:44:02;;;;;;;;;;;11.90;74.20;;;;;;5055607;28;19905;-71
2022/04/18 11:46:28;;;;;;;;;;;12.20;73.80;;;;;;5058312;28;20253;-71
2022/04/18 11:48:54;;;;;;;;;;;12.50;73.00;;;;;;5058207;28;19971;-71
2022/04/18 11:51:41;;;;;;;;;;;12.60;71.70;;;;;;5054010;28;20255;-71
2022/04/18 11:54:06;;;;;;;;;;;12.70;71.90;;;;;;5054299;28;19999;-72
2022/04/18 11:56:32;;;;;;;;;;;12.80;71.00;;;;;;5059818;28;19991;-71
2022/04/18 11:59:02;;;;;;;;;;;12.80;71.50;;;;;;5056235;28;19909;-71
2022/04/18 12:06:59;;;;;;;;;;;13.40;72.60;;;;;;5058889;28;20037;-71
2022/04/18 12:09:26;;;;;;;;;;;13.80;70.10;;;;;;5059330;28;19912;-73
2022/04/18 12:11:52;;;;;;;;;;;14.10;69.40;;;;;;5059233;28;19915;-73
2022/04/18 12:14:20;;;;;;;;;;;14.20;67.50;;;;;;5053402;28;19908;-74
2022/04/18 12:16:47;;;;;;;;;;;14.20;67.00;;;;;;5059098;28;19969;-74
2022/04/18 12:19:15;;;;;;;;;;;14.40;66.80;;;;;;5055393;28;20276;-73
2022/04/18 12:21:49;;;;;;;;;;;14.50;66.30;;;;;;5057650;28;19908;-73
2022/04/18 12:24:15;;;;;;;;;;;14.60;64.20;;;;;;5054691;28;19905;-74
2022/04/18 12:26:40;;;;;;;;;;;14.80;61.20;;;;;;5059968;28;20375;-73
2022/04/18 12:29:08;;;;;;;;;;;15.00;61.00;;;;;;5054637;28;19911;-74
2022/04/18 12:31:37;;;;;;;;;;;15.00;61.60;;;;;;5057760;28;20285;-74
2022/04/18 12:34:05;;;;;;;;;;;15.00;60.20;;;;;;5067698;28;19915;-74
2022/04/18 12:36:35;;;;;;;;;;;14.90;61.40;;;;;;5060284;28;19905;-74
2022/04/18 12:39:02;;;;;;;;;;;14.80;62.20;;;;;;5058565;28;19908;-73
2022/04/18 12:41:30;;;;;;;;;;;14.80;62.70;;;;;;5058552;28;19904;-74
2022/04/18 12:43:57;;;;;;;;;;;14.50;57.70;;;;;;5060115;28;19913;-73
2022/04/18 12:46:24;;;;;;;;;;;14.50;58.10;;;;;;5055753;28;19919;-74
2022/04/18 12:48:51;;;;;;;;;;;14.40;57.10;;;;;;5059445;28;19908;-74
2022/04/18 12:51:17;;;;;;;;;;;14.40;56.70;;;;;;5054669;28;19908;-74
2022/04/18 12:53:51;;;;;;;;;;;14.40;58.20;;;;;;5057999;28;19908;-73
2022/04/18 12:56:22;;;;;;;;;;;14.30;58.10;;;;;;5055763;28;19905;-73
2022/04/18 12:58:48;;;;;;;;;;;14.10;60.50;;;;;;5058626;28;19908;-74
2022/04/18 13:01:22;;;;;;;;;;;14.10;60.90;;;;;;5055116;28;19904;-74
2022/04/18 13:03:47;;;;;;;;;;;14.20;60.40;;;;;;5059224;28;19905;-74
2022/04/18 13:06:14;;;;;;;;;;;14.10;59.10;;;;;;5055076;28;20552;-75
2022/04/18 13:08:40;;;;;;;;;;;13.90;60.00;;;;;;5047409;28;19954;-74
2022/04/18 13:11:09;;;;;;;;;;;13.80;61.40;;;;;;5033103;28;19909;-74
2022/04/18 13:13:34;;;;;;;;;;;13.60;61.90;;;;;;5036578;28;19904;-74
2022/04/18 13:16:19;;;;;;;;;;;13.60;62.70;;;;;;5038816;28;19912;-74
2022/04/18 13:18:44;;;;;;;;;;;13.60;63.40;;;;;;5069437;28;19934;-74
2022/04/18 13:21:10;;;;;;;;;;;13.80;63.50;;;;;;5034767;28;19912;-74
2022/04/18 13:23:35;;;;;;;;;;;14.00;63.00;;;;;;5039163;28;19908;-74
2022/04/18 13:26:03;;;;;;;;;;;14.20;64.30;;;;;;5039351;28;19916;-75
2022/04/18 13:28:30;;;;;;;;;;;14.40;62.50;;;;;;5034191;28;19909;-72
2022/04/18 13:30:57;;;;;;;;;;;14.50;61.50;;;;;;5036082;28;19960;-71
2022/04/18 13:33:23;;;;;;;;;;;14.40;60.70;;;;;;5033669;28;19997;-71
2022/04/18 13:38:33;;;;;;;;;;;14.40;59.70;;;;;;5037140;28;20003;-71
2022/04/18 13:40:58;;;;;;;;;;;14.20;60.60;;;;;;5036317;28;19909;-72
2022/04/18 13:43:24;;;;;;;;;;;14.20;60.80;;;;;;5031099;28;20750;-71
2022/04/18 13:45:50;;;;;;;;;;;14.10;60.00;;;;;;5035414;28;19940;-71
2022/04/18 13:48:16;;;;;;;;;;;14.00;60.40;;;;;;5030983;28;19908;-71
2022/04/18 13:50:42;;;;;;;;;;;14.00;60.10;;;;;;5032718;28;19958;-71
2022/04/18 13:53:08;;;;;;;;;;;14.10;60.40;;;;;;5030923;28;19908;-71
2022/04/18 13:55:34;;;;;;;;;;;14.10;60.20;;;;;;5034076;28;20004;-71
2022/04/18 13:58:00;;;;;;;;;;;14.20;59.50;;;;;;5034060;28;20285;-71
2022/04/18 14:00:28;;;;;;;;;;;14.20;58.40;;;;;;5029189;28;19913;-71
2022/04/18 14:02:55;;;;;;;;;;;14.10;58.40;;;;;;5035876;28;20076;-69
2022/04/18 14:05:22;;;;;;;;;;;14.00;60.50;;;;;;5030858;28;19912;-70
2022/04/18 14:07:47;;;;;;;;;;;14.10;60.70;;;;;;5034484;28;19999;-69
2022/04/18 14:10:13;;;;;;;;;;;14.30;60.40;;;;;;5029704;28;19966;-70
2022/04/18 14:12:39;;;;;;;;;;;14.50;61.30;;;;;;5034314;28;19915;-70
2022/04/18 14:20:32;;;;;;;;;;;14.60;61.60;;;;;;5035270;28;19923;-72
2022/04/18 14:22:58;;;;;;;;;;;14.50;61.30;;;;;;5037220;28;19905;-71
2022/04/18 14:25:26;;;;;;;;;;;14.30;61.80;;;;;;5032927;28;19913;-72
2022/04/18 14:27:52;;;;;;;;;;;14.10;62.70;;;;;;5036031;28;20430;-71
2022/04/18 14:30:17;;;;;;;;;;;13.90;63.50;;;;;;5031882;28;19912;-71
2022/04/18 14:32:44;;;;;;;;;;;13.80;63.50;;;;;;5038016;28;19905;-71
2022/04/18 14:35:10;;;;;;;;;;;13.50;63.50;;;;;;5032705;28;19912;-72
2022/04/18 14:37:37;;;;;;;;;;;13.40;63.80;;;;;;5036240;28;19909;-71
2022/04/18 14:40:02;;;;;;;;;;;13.20;64.50;;;;;;5031927;28;19905;-71
2022/04/18 14:42:29;;;;;;;;;;;13.20;65.00;;;;;;5032395;28;19909;-71
2022/04/18 14:44:56;;;;;;;;;;;13.20;65.10;;;;;;5035426;28;19940;-71
2022/04/18 14:47:23;;;;;;;;;;;13.20;65.20;;;;;;5032843;28;19918;-72
2022/04/18 14:49:49;;;;;;;;;;;13.10;65.10;;;;;;5035228;28;19908;-71
2022/04/18 14:52:19;;;;;;;;;;;13.00;65.70;;;;;;5031357;28;19904;-71
2022/04/18 14:54:44;;;;;;;;;;;13.00;65.20;;;;;;5035011;28;19913;-71
2022/04/18 14:57:10;;;;;;;;;;;12.90;65.60;;;;;;5034311;28;19920;-72
2022/04/18 14:59:35;;;;;;;;;;;12.90;66.00;;;;;;5039980;28;19916;-71
2022/04/18 15:02:01;;;;;;;;;;;12.90;66.70;;;;;;5073085;28;20393;-72